createdAt,value
2022-11-16T00:00:58.125Z,10.14
2022-11-16T00:06:06.101Z,10.13
2022-11-16T00:11:08.847Z,10.13
2022-11-16T00:16:15.814Z,10.11
2022-11-16T00:21:17.400Z,10.07
2022-11-16T00:26:21.709Z,10.03
2022-11-16T00:31:28.029Z,10.00
2022-11-16T00:36:31.283Z,9.99
2022-11-16T00:41:41.371Z,9.98
2022-11-16T00:46:49.519Z,9.96
2022-11-16T00:51:59.147Z,9.93
2022-11-16T00:57:08.336Z,9.92
2022-11-16T01:02:10.871Z,9.89
2022-11-16T01:07:18.991Z,9.86
2022-11-16T01:12:26.649Z,9.86
2022-11-16T01:17:30.348Z,9.84
2022-11-16T01:22:43.665Z,9.81
2022-11-16T01:27:48.221Z,9.79
2022-11-16T01:33:02.880Z,9.79
2022-11-16T01:38:05.065Z,9.78
2022-11-16T01:43:49.167Z,9.76
2022-11-16T01:49:08.429Z,9.76
2022-11-16T01:54:15.953Z,9.76
2022-11-16T01:59:28.625Z,9.76
2022-11-16T02:04:35.304Z,9.78
2022-11-16T02:10:00.576Z,9.78
2022-11-16T02:15:27.211Z,9.77
2022-11-16T02:20:53.194Z,9.78
2022-11-16T02:26:06.217Z,9.79
2022-11-16T02:31:22.642Z,9.77
2022-11-16T02:36:57.293Z,9.75
2022-11-16T02:41:56.909Z,9.73
2022-11-16T02:47:10.510Z,9.75
2022-11-16T02:52:15.409Z,9.74
2022-11-16T02:57:44.313Z,9.75
2022-11-16T03:03:11.936Z,9.75
2022-11-16T03:08:27.593Z,9.75
2022-11-16T03:13:43.534Z,9.76
2022-11-16T03:18:50.335Z,9.75
2022-11-16T03:23:54.610Z,9.78
2022-11-16T03:29:14.162Z,9.78
2022-11-16T03:34:25.561Z,9.78
2022-11-16T03:39:39.592Z,9.78
2022-11-16T03:44:50.471Z,9.77
2022-11-16T03:49:55.271Z,9.78
2022-11-16T03:54:58.641Z,9.77
2022-11-16T04:00:12.696Z,9.79
2022-11-16T04:05:38.324Z,9.80
2022-11-16T04:11:01.552Z,9.79
2022-11-16T04:16:27.311Z,9.79
2022-11-16T04:22:02.029Z,9.77
2022-11-16T04:27:31.581Z,9.76
2022-11-16T04:32:54.984Z,9.75
2022-11-16T04:38:01.136Z,9.73
2022-11-16T04:43:09.537Z,9.75
2022-11-16T04:48:24.085Z,9.72
2022-11-16T04:53:29.009Z,9.71
2022-11-16T04:58:41.189Z,9.69
2022-11-16T05:03:46.492Z,9.66
2022-11-16T05:08:48.122Z,9.57
2022-11-16T05:13:54.051Z,9.53
2022-11-16T05:19:15.551Z,9.48
2022-11-16T05:24:40.400Z,9.50
2022-11-16T05:29:45.047Z,9.51
2022-11-16T05:34:50.514Z,9.52
2022-11-16T05:39:57.952Z,9.53
2022-11-16T05:45:21.267Z,9.58
2022-11-16T05:50:26.202Z,9.62
2022-11-16T05:55:44.314Z,9.65
2022-11-16T06:00:52.638Z,9.66
2022-11-16T06:05:58.203Z,9.69
2022-11-16T06:11:14.486Z,9.70
2022-11-16T06:16:22.695Z,9.71
2022-11-16T06:21:30.989Z,9.72
2022-11-16T06:26:37.803Z,9.74
2022-11-16T06:31:54.577Z,9.74
2022-11-16T06:37:05.636Z,9.75
2022-11-16T06:42:16.366Z,9.74
2022-11-16T06:47:20.988Z,9.75
2022-11-16T06:52:27.494Z,9.72
2022-11-16T06:57:37.455Z,9.72
2022-11-16T07:02:45.173Z,9.71
2022-11-16T07:07:57.476Z,9.70
2022-11-16T07:13:04.833Z,9.70
2022-11-16T07:18:12.669Z,9.68
2022-11-16T07:23:23.222Z,9.68
2022-11-16T07:28:30.224Z,9.68
2022-11-16T07:33:35.889Z,9.71
2022-11-16T07:39:03.008Z,9.71
2022-11-16T07:44:14.959Z,9.72
2022-11-16T07:49:27.036Z,9.75
2022-11-16T07:54:37.018Z,9.76
2022-11-16T07:59:49.289Z,9.79
2022-11-16T08:04:55.104Z,9.77
2022-11-16T08:10:05.200Z,9.78
2022-11-16T08:15:15.097Z,9.74
2022-11-16T08:20:32.939Z,9.74
2022-11-16T08:25:34.833Z,9.74
2022-11-16T08:30:43.871Z,9.74
2022-11-16T08:35:48.340Z,9.74
2022-11-16T08:40:57.238Z,9.75
2022-11-16T08:46:07.390Z,9.76
2022-11-16T08:51:18.201Z,9.79
2022-11-16T08:56:27.274Z,9.83
2022-11-16T09:01:33.445Z,9.79
2022-11-16T09:06:37.854Z,9.75
2022-11-16T09:11:46.062Z,9.74
2022-11-16T09:16:49.888Z,9.73
2022-11-16T09:21:55.846Z,9.75
2022-11-16T09:27:09.868Z,9.73
2022-11-16T09:32:16.592Z,9.73
2022-11-16T09:37:28.727Z,9.77
2022-11-16T09:42:38.076Z,9.82
2022-11-16T09:47:46.392Z,9.85
2022-11-16T09:52:51.033Z,9.88
2022-11-16T09:57:55.607Z,9.91
2022-11-16T10:03:03.753Z,9.95
2022-11-16T10:08:18.926Z,10.00
2022-11-16T10:14:04.023Z,10.06
2022-11-16T10:19:17.263Z,10.11
2022-11-16T10:24:32.742Z,10.14
2022-11-16T10:30:10.506Z,10.16
2022-11-16T10:35:45.842Z,10.15
2022-11-16T10:41:01.815Z,10.16
2022-11-16T10:46:16.541Z,10.20
2022-11-16T10:51:22.629Z,10.24
2022-11-16T10:56:39.701Z,10.23
2022-11-16T11:01:43.515Z,10.24
2022-11-16T11:06:53.283Z,10.22
2022-11-16T11:12:17.604Z,10.23
2022-11-16T11:17:21.364Z,10.24
2022-11-16T11:22:25.622Z,10.25
2022-11-16T11:27:38.024Z,10.29
2022-11-16T11:32:44.783Z,10.28
2022-11-16T11:37:56.330Z,10.29
2022-11-16T11:43:06.161Z,10.30
2022-11-16T11:48:27.340Z,10.28
2022-11-16T11:53:47.422Z,10.26
2022-11-16T11:59:05.719Z,10.29
2022-11-16T12:04:42.879Z,10.31
2022-11-16T12:10:13.759Z,10.32
2022-11-16T12:15:23.702Z,10.35
2022-11-16T12:21:00.969Z,10.39
2022-11-16T12:26:27.029Z,10.47
2022-11-16T12:31:47.256Z,10.55
2022-11-16T12:37:12.347Z,10.59
2022-11-16T12:42:34.984Z,10.67
2022-11-16T12:47:57.814Z,10.76
2022-11-16T12:53:26.794Z,10.81
2022-11-16T12:58:52.009Z,10.78
2022-11-16T13:04:04.876Z,10.81
2022-11-16T13:09:37.602Z,10.84
2022-11-16T13:14:47.878Z,10.89
2022-11-16T13:20:18.615Z,10.95
2022-11-16T13:26:00.125Z,10.99
2022-11-16T13:31:12.558Z,11.04
2022-11-16T13:36:41.342Z,11.07
2022-11-16T13:41:48.197Z,11.12
2022-11-16T13:47:07.468Z,11.16
2022-11-16T13:52:40.399Z,11.16
2022-11-16T13:57:37.194Z,11.13
2022-11-16T14:02:41.417Z,11.17
2022-11-16T14:07:50.787Z,11.21
2022-11-16T14:13:27.378Z,11.26
2022-11-16T14:18:39.744Z,11.33
2022-11-16T14:23:55.864Z,11.45
2022-11-16T14:29:34.991Z,11.55
2022-11-16T14:34:48.082Z,11.63
2022-11-16T14:40:02.129Z,11.71
2022-11-16T14:45:17.798Z,11.75
2022-11-16T14:50:25.838Z,11.79
2022-11-16T14:55:31.288Z,11.78
2022-11-16T15:00:36.613Z,11.78
2022-11-16T15:05:42.699Z,11.81
2022-11-16T15:10:52.546Z,11.82
2022-11-16T15:16:20.163Z,11.80
2022-11-16T15:21:25.397Z,11.78
2022-11-16T15:26:27.638Z,11.77
2022-11-16T15:31:49.238Z,11.75
2022-11-16T15:36:52.842Z,11.74
2022-11-16T15:42:03.985Z,11.74
2022-11-16T15:47:12.069Z,11.73
2022-11-16T15:52:42.654Z,11.67
2022-11-16T15:57:46.540Z,11.63
2022-11-16T16:02:48.426Z,11.64
2022-11-16T16:07:52.501Z,11.65
2022-11-16T16:13:00.225Z,11.66
2022-11-16T16:18:39.237Z,11.67
2022-11-16T16:24:01.026Z,11.66
2022-11-16T16:29:04.904Z,11.63
2022-11-16T16:34:12.688Z,11.57
2022-11-16T16:39:18.106Z,11.56
2022-11-16T16:44:22.498Z,11.57
2022-11-16T16:49:29.017Z,11.58
2022-11-16T16:54:40.735Z,11.55
2022-11-16T16:59:46.379Z,11.50
2022-11-16T17:04:48.885Z,11.49
2022-11-16T17:09:52.544Z,11.45
2022-11-16T17:14:54.579Z,11.45
2022-11-16T17:19:59.690Z,11.46
2022-11-16T17:25:01.213Z,11.48
2022-11-16T17:30:07.999Z,11.50
2022-11-16T17:35:11.806Z,11.51
2022-11-16T17:40:16.632Z,11.48
2022-11-16T17:45:22.185Z,11.46
2022-11-16T17:50:39.920Z,11.46
2022-11-16T17:55:42.352Z,11.43
2022-11-16T18:00:57.994Z,11.44
2022-11-16T18:06:06.108Z,11.43
2022-11-16T18:11:17.374Z,11.35
2022-11-16T18:16:27.556Z,11.26
2022-11-16T18:21:29.595Z,11.18
2022-11-16T18:26:31.095Z,11.19
2022-11-16T18:31:37.847Z,11.18
2022-11-16T18:36:44.032Z,11.17
2022-11-16T18:41:50.106Z,11.17
2022-11-16T18:47:07.639Z,11.20
2022-11-16T18:52:14.918Z,11.18
2022-11-16T18:57:31.418Z,11.18
2022-11-16T19:02:33.037Z,11.15
2022-11-16T19:07:42.177Z,11.13
2022-11-16T19:12:48.827Z,11.13
2022-11-16T19:18:19.443Z,11.15
2022-11-16T19:23:19.847Z,11.18
2022-11-16T19:28:22.618Z,11.20
2022-11-16T19:33:34.274Z,11.19
2022-11-16T19:38:39.372Z,11.18
2022-11-16T19:43:49.628Z,11.17
2022-11-16T19:48:56.883Z,11.17
2022-11-16T19:54:15.560Z,11.17
2022-11-16T19:59:17.988Z,11.18
2022-11-16T20:04:21.909Z,11.17
2022-11-16T20:09:29.928Z,11.15
2022-11-16T20:14:37.942Z,11.16
2022-11-16T20:19:42.004Z,11.15
2022-11-16T20:24:52.215Z,11.14
2022-11-16T20:30:08.024Z,11.14
2022-11-16T20:35:21.223Z,11.12
2022-11-16T20:40:22.794Z,11.12
2022-11-16T20:45:47.351Z,11.11
2022-11-16T20:50:54.952Z,11.09
2022-11-16T20:56:02.443Z,11.06
2022-11-16T21:01:12.477Z,11.04
2022-11-16T21:06:18.786Z,11.03
2022-11-16T21:11:30.457Z,11.00
2022-11-16T21:16:33.497Z,11.00
2022-11-16T21:21:40.150Z,11.00
2022-11-16T21:26:44.388Z,11.00
2022-11-16T21:31:48.562Z,10.99
2022-11-16T21:36:52.226Z,11.00
2022-11-16T21:41:53.854Z,11.00
2022-11-16T21:46:56.421Z,10.99
2022-11-16T21:52:12.932Z,10.99
2022-11-16T21:57:14.972Z,10.99
2022-11-16T22:02:16.771Z,11.00
2022-11-16T22:07:34.731Z,11.00
2022-11-16T22:12:39.158Z,10.99
2022-11-16T22:17:59.120Z,11.00
2022-11-16T22:23:03.560Z,11.00
2022-11-16T22:28:20.189Z,11.00
2022-11-16T22:33:27.145Z,11.00
2022-11-16T22:38:29.839Z,10.99
2022-11-16T22:43:32.298Z,11.00
2022-11-16T22:48:40.128Z,10.97
2022-11-16T22:53:41.627Z,10.97
2022-11-16T22:58:46.392Z,10.97
2022-11-16T23:03:56.214Z,10.97
2022-11-16T23:09:01.437Z,10.95
2022-11-16T23:14:22.992Z,10.93
2022-11-16T23:19:46.203Z,10.91
2022-11-16T23:25:08.873Z,10.91
2022-11-16T23:30:16.735Z,10.89
2022-11-16T23:35:28.122Z,10.88
2022-11-16T23:40:33.054Z,10.87
2022-11-16T23:45:42.084Z,10.86
2022-11-16T23:50:48.563Z,10.86
2022-11-16T23:55:52.532Z,10.84
